Terminal Aerodrome Forecast
Issued by NWS Quad Cities IA IL

Home | Current Version | Previous Version | Text Only | Print | Product List | Glossary On
Versions: 1 2 3 4 5 6 7 8 9 10 11 12 13 14 15 16 17 18 19 20 21 22
000
FTUS43 KDVN 140724 AAA
TAFDBQ
TAF AMD
KDBQ 140724Z 1407/1506 36010KT P6SM OVC018
     FM141300 30006KT P6SM SCT030
     FM141800 27005KT P6SM OVC050=

USA.gov is the U.S. government's official web portal to all federal, state and local government web resources and services.